Areial, Brazil
Current Conditions -  °F | °C
As of 5:00 PM on Sunday 23 Nov 2014 (Local Time) from SBKG Reporting Station
Few Clouds Few Clouds  
Wind Chill: 81°   Ceiling: Unl
Heat Index: 82°   Visibility: 6mi
Dew Point: 63°   Wind: 17mph
Humidity: 54%   Direction: 80°E
Pressure: 29.94"   Gusts: NA
Location:  7.06°S, 35.93°W
Report Text: SBKG 232000Z 08015KT 9999 FEW030 27/17 Q1014
Loading
Personal Weather Stations






























Interactive Weather Map New forecast layout! Learn more

10-Day Weather Forecast

Advertisements
Track Severe Weather on mobile